sensor_id;sensor_type;location;lat;lon;timestamp;temperature;humidity
44215;DHT22;29884;47.450;19.124;2022-12-07T00:01:47;2.70;99.90
44215;DHT22;29884;47.450;19.124;2022-12-07T00:04:15;2.70;99.90
44215;DHT22;29884;47.450;19.124;2022-12-07T00:06:43;2.60;99.90
44215;DHT22;29884;47.450;19.124;2022-12-07T00:09:14;2.50;99.90
44215;DHT22;29884;47.450;19.124;2022-12-07T00:11:40;2.50;99.90
44215;DHT22;29884;47.450;19.124;2022-12-07T00:14:09;2.50;99.90
44215;DHT22;29884;47.450;19.124;2022-12-07T00:16:36;2.50;99.90
44215;DHT22;29884;47.450;19.124;2022-12-07T00:19:03;2.50;99.90
44215;DHT22;29884;47.450;19.124;2022-12-07T00:21:31;2.30;99.90
44215;DHT22;29884;47.450;19.124;2022-12-07T00:23:58;2.30;99.90
44215;DHT22;29884;47.450;19.124;2022-12-07T00:26:27;2.20;99.90
44215;DHT22;29884;47.450;19.124;2022-12-07T00:28:55;2.20;99.90
44215;DHT22;29884;47.450;19.124;2022-12-07T00:31:24;2.20;99.90
44215;DHT22;29884;47.450;19.124;2022-12-07T00:33:50;2.10;99.90
44215;DHT22;29884;47.450;19.124;2022-12-07T00:36:20;2.00;99.90
44215;DHT22;29884;47.450;19.124;2022-12-07T00:38:46;1.90;99.90
44215;DHT22;29884;47.450;19.124;2022-12-07T00:41:17;1.90;99.90
44215;DHT22;29884;47.450;19.124;2022-12-07T00:43:45;1.90;99.90
44215;DHT22;29884;47.450;19.124;2022-12-07T00:46:11;1.90;99.90
44215;DHT22;29884;47.450;19.124;2022-12-07T00:48:37;1.80;99.90
44215;DHT22;29884;47.450;19.124;2022-12-07T00:51:04;1.80;99.90
44215;DHT22;29884;47.450;19.124;2022-12-07T00:53:30;1.80;99.90
44215;DHT22;29884;47.450;19.124;2022-12-07T00:55:56;1.80;99.90
44215;DHT22;29884;47.450;19.124;2022-12-07T00:58:23;1.80;99.90
44215;DHT22;29884;47.450;19.124;2022-12-07T01:00:49;1.70;99.90
44215;DHT22;29884;47.450;19.124;2022-12-07T01:03:16;1.70;99.90
44215;DHT22;29884;47.450;19.124;2022-12-07T01:05:50;1.70;99.90
44215;DHT22;29884;47.450;19.124;2022-12-07T01:08:16;1.70;99.90
44215;DHT22;29884;47.450;19.124;2022-12-07T01:10:42;1.80;99.90
44215;DHT22;29884;47.450;19.124;2022-12-07T01:13:08;1.80;99.90
44215;DHT22;29884;47.450;19.124;2022-12-07T01:15:33;1.70;99.90
44215;DHT22;29884;47.450;19.124;2022-12-07T01:17:59;1.60;99.90
44215;DHT22;29884;47.450;19.124;2022-12-07T01:20:24;1.50;99.90
44215;DHT22;29884;47.450;19.124;2022-12-07T01:22:50;1.50;99.90
44215;DHT22;29884;47.450;19.124;2022-12-07T01:25:16;1.50;99.90
44215;DHT22;29884;47.450;19.124;2022-12-07T01:27:42;1.50;99.90
44215;DHT22;29884;47.450;19.124;2022-12-07T01:30:09;1.40;99.90
44215;DHT22;29884;47.450;19.124;2022-12-07T01:32:35;1.40;99.90
44215;DHT22;29884;47.450;19.124;2022-12-07T01:35:01;1.40;99.90
44215;DHT22;29884;47.450;19.124;2022-12-07T01:37:26;1.40;99.90
44215;DHT22;29884;47.450;19.124;2022-12-07T01:39:52;1.40;99.90
44215;DHT22;29884;47.450;19.124;2022-12-07T01:42:18;1.40;99.90
44215;DHT22;29884;47.450;19.124;2022-12-07T01:47:53;1.40;99.90
44215;DHT22;29884;47.450;19.124;2022-12-07T01:50:21;1.40;99.90
44215;DHT22;29884;47.450;19.124;2022-12-07T01:52:50;1.40;99.90
44215;DHT22;29884;47.450;19.124;2022-12-07T01:55:18;1.40;99.90
44215;DHT22;29884;47.450;19.124;2022-12-07T01:57:47;1.50;99.90
44215;DHT22;29884;47.450;19.124;2022-12-07T02:00:14;1.40;99.90
44215;DHT22;29884;47.450;19.124;2022-12-07T02:05:09;1.50;99.90
44215;DHT22;29884;47.450;19.124;2022-12-07T02:07:36;1.50;99.90
44215;DHT22;29884;47.450;19.124;2022-12-07T02:10:18;1.50;99.90
44215;DHT22;29884;47.450;19.124;2022-12-07T02:12:52;1.60;99.90
44215;DHT22;29884;47.450;19.124;2022-12-07T02:15:20;1.60;99.90
44215;DHT22;29884;47.450;19.124;2022-12-07T02:17:53;1.60;99.90
44215;DHT22;29884;47.450;19.124;2022-12-07T02:32:09;1.80;99.90
44215;DHT22;29884;47.450;19.124;2022-12-07T02:37:34;1.90;99.90
44215;DHT22;29884;47.450;19.124;2022-12-07T02:42:45;2.10;99.90
44215;DHT22;29884;47.450;19.124;2022-12-07T02:45:14;2.20;99.90
44215;DHT22;29884;47.450;19.124;2022-12-07T02:47:41;2.20;99.90
44215;DHT22;29884;47.450;19.124;2022-12-07T02:50:07;2.20;99.90
44215;DHT22;29884;47.450;19.124;2022-12-07T02:52:33;2.20;99.90
44215;DHT22;29884;47.450;19.124;2022-12-07T02:54:59;2.20;99.90
44215;DHT22;29884;47.450;19.124;2022-12-07T03:00:24;2.10;99.90
44215;DHT22;29884;47.450;19.124;2022-12-07T03:11:06;2.20;99.90
44215;DHT22;29884;47.450;19.124;2022-12-07T03:16:09;2.20;99.90
44215;DHT22;29884;47.450;19.124;2022-12-07T03:18:40;2.20;99.90
44215;DHT22;29884;47.450;19.124;2022-12-07T03:21:17;2.30;99.90
44215;DHT22;29884;47.450;19.124;2022-12-07T03:23:48;2.30;99.90
44215;DHT22;29884;47.450;19.124;2022-12-07T03:26:17;2.40;99.90
44215;DHT22;29884;47.450;19.124;2022-12-07T03:28:50;2.40;99.90
44215;DHT22;29884;47.450;19.124;2022-12-07T03:31:26;2.40;99.90
44215;DHT22;29884;47.450;19.124;2022-12-07T03:34:14;2.30;99.90
44215;DHT22;29884;47.450;19.124;2022-12-07T03:37:18;2.40;99.90
44215;DHT22;29884;47.450;19.124;2022-12-07T03:39:46;2.50;99.90
44215;DHT22;29884;47.450;19.124;2022-12-07T03:42:14;2.50;99.90
44215;DHT22;29884;47.450;19.124;2022-12-07T03:44:41;2.50;99.90
44215;DHT22;29884;47.450;19.124;2022-12-07T03:52:48;2.50;99.90
44215;DHT22;29884;47.450;19.124;2022-12-07T03:55:23;2.50;99.90
44215;DHT22;29884;47.450;19.124;2022-12-07T03:57:51;2.50;99.90
44215;DHT22;29884;47.450;19.124;2022-12-07T04:00:19;2.50;99.90
44215;DHT22;29884;47.450;19.124;2022-12-07T04:02:45;2.50;99.90
44215;DHT22;29884;47.450;19.124;2022-12-07T04:05:11;2.60;99.90
44215;DHT22;29884;47.450;19.124;2022-12-07T04:07:37;2.50;99.90
44215;DHT22;29884;47.450;19.124;2022-12-07T04:10:03;2.60;99.90
44215;DHT22;29884;47.450;19.124;2022-12-07T04:12:29;2.60;99.90
44215;DHT22;29884;47.450;19.124;2022-12-07T04:14:55;2.70;99.90
44215;DHT22;29884;47.450;19.124;2022-12-07T04:17:21;2.80;99.90
44215;DHT22;29884;47.450;19.124;2022-12-07T04:19:46;2.80;99.90
44215;DHT22;29884;47.450;19.124;2022-12-07T04:22:12;2.80;99.90
44215;DHT22;29884;47.450;19.124;2022-12-07T04:24:38;2.70;99.90
44215;DHT22;29884;47.450;19.124;2022-12-07T04:27:04;2.60;99.90
44215;DHT22;29884;47.450;19.124;2022-12-07T04:29:30;2.60;99.90
44215;DHT22;29884;47.450;19.124;2022-12-07T04:31:55;2.70;99.90
44215;DHT22;29884;47.450;19.124;2022-12-07T04:34:21;2.80;99.90
44215;DHT22;29884;47.450;19.124;2022-12-07T04:36:48;2.80;99.90
44215;DHT22;29884;47.450;19.124;2022-12-07T04:39:28;2.90;99.90
44215;DHT22;29884;47.450;19.124;2022-12-07T04:41:56;2.90;99.90
44215;DHT22;29884;47.450;19.124;2022-12-07T04:44:22;2.90;99.90
44215;DHT22;29884;47.450;19.124;2022-12-07T04:46:49;2.80;99.90
44215;DHT22;29884;47.450;19.124;2022-12-07T04:49:16;2.70;99.90
44215;DHT22;29884;47.450;19.124;2022-12-07T04:51:42;2.70;99.90
44215;DHT22;29884;47.450;19.124;2022-12-07T04:54:08;2.70;99.90
44215;DHT22;29884;47.450;19.124;2022-12-07T04:56:35;2.70;99.90
44215;DHT22;29884;47.450;19.124;2022-12-07T04:59:01;2.70;99.90
44215;DHT22;29884;47.450;19.124;2022-12-07T05:01:27;2.70;99.90
44215;DHT22;29884;47.450;19.124;2022-12-07T05:03:53;2.70;99.90
44215;DHT22;29884;47.450;19.124;2022-12-07T05:06:19;2.70;99.90
44215;DHT22;29884;47.450;19.124;2022-12-07T05:08:45;2.60;99.90
44215;DHT22;29884;47.450;19.124;2022-12-07T05:11:11;2.70;99.90
44215;DHT22;29884;47.450;19.124;2022-12-07T05:13:56;2.60;99.90
44215;DHT22;29884;47.450;19.124;2022-12-07T05:16:21;2.60;99.90
44215;DHT22;29884;47.450;19.124;2022-12-07T05:18:47;2.70;99.90
44215;DHT22;29884;47.450;19.124;2022-12-07T05:21:13;2.60;99.90
44215;DHT22;29884;47.450;19.124;2022-12-07T05:23:38;2.70;99.90
44215;DHT22;29884;47.450;19.124;2022-12-07T05:26:04;2.70;99.90
44215;DHT22;29884;47.450;19.124;2022-12-07T05:28:30;2.70;99.90
44215;DHT22;29884;47.450;19.124;2022-12-07T05:30:55;2.70;99.90
44215;DHT22;29884;47.450;19.124;2022-12-07T05:33:21;2.70;99.90
44215;DHT22;29884;47.450;19.124;2022-12-07T05:35:47;2.70;99.90
44215;DHT22;29884;47.450;19.124;2022-12-07T05:38:12;2.60;99.90
44215;DHT22;29884;47.450;19.124;2022-12-07T05:40:38;2.60;99.90
44215;DHT22;29884;47.450;19.124;2022-12-07T05:43:04;2.70;99.90
44215;DHT22;29884;47.450;19.124;2022-12-07T05:45:29;2.70;99.90
44215;DHT22;29884;47.450;19.124;2022-12-07T05:47:55;2.70;99.90
44215;DHT22;29884;47.450;19.124;2022-12-07T05:50:21;2.50;99.90
44215;DHT22;29884;47.450;19.124;2022-12-07T05:52:46;2.60;99.90
44215;DHT22;29884;47.450;19.124;2022-12-07T05:55:12;2.50;99.90
44215;DHT22;29884;47.450;19.124;2022-12-07T05:57:38;2.50;99.90
44215;DHT22;29884;47.450;19.124;2022-12-07T06:00:04;2.50;99.90
44215;DHT22;29884;47.450;19.124;2022-12-07T06:02:30;2.60;99.90
44215;DHT22;29884;47.450;19.124;2022-12-07T06:04:56;2.60;99.90
44215;DHT22;29884;47.450;19.124;2022-12-07T06:07:22;2.60;99.90
44215;DHT22;29884;47.450;19.124;2022-12-07T06:09:47;2.60;99.90
44215;DHT22;29884;47.450;19.124;2022-12-07T06:12:14;2.60;99.90
44215;DHT22;29884;47.450;19.124;2022-12-07T06:14:58;2.60;99.90
44215;DHT22;29884;47.450;19.124;2022-12-07T06:17:24;2.70;99.90
44215;DHT22;29884;47.450;19.124;2022-12-07T06:19:50;2.70;99.90
44215;DHT22;29884;47.450;19.124;2022-12-07T06:22:16;2.60;99.90
44215;DHT22;29884;47.450;19.124;2022-12-07T06:24:43;2.60;99.90
44215;DHT22;29884;47.450;19.124;2022-12-07T06:27:09;2.60;99.90
44215;DHT22;29884;47.450;19.124;2022-12-07T06:29:36;2.60;99.90
44215;DHT22;29884;47.450;19.124;2022-12-07T06:32:02;2.50;99.90
44215;DHT22;29884;47.450;19.124;2022-12-07T06:34:28;2.50;99.90
44215;DHT22;29884;47.450;19.124;2022-12-07T06:36:54;2.60;99.90
44215;DHT22;29884;47.450;19.124;2022-12-07T06:39:28;2.70;99.90
44215;DHT22;29884;47.450;19.124;2022-12-07T06:41:54;2.70;99.90
44215;DHT22;29884;47.450;19.124;2022-12-07T06:44:20;2.70;99.90
44215;DHT22;29884;47.450;19.124;2022-12-07T06:46:47;2.70;99.90
44215;DHT22;29884;47.450;19.124;2022-12-07T06:49:13;2.70;99.90
44215;DHT22;29884;47.450;19.124;2022-12-07T06:51:39;2.70;99.90
44215;DHT22;29884;47.450;19.124;2022-12-07T06:54:10;2.70;99.90
44215;DHT22;29884;47.450;19.124;2022-12-07T06:56:36;2.70;99.90
44215;DHT22;29884;47.450;19.124;2022-12-07T06:59:02;2.60;99.90
44215;DHT22;29884;47.450;19.124;2022-12-07T07:01:28;2.60;99.90
44215;DHT22;29884;47.450;19.124;2022-12-07T07:03:54;2.70;99.90
44215;DHT22;29884;47.450;19.124;2022-12-07T07:06:19;2.70;99.90
44215;DHT22;29884;47.450;19.124;2022-12-07T07:08:45;2.70;99.90
44215;DHT22;29884;47.450;19.124;2022-12-07T07:11:10;2.80;99.90
44215;DHT22;29884;47.450;19.124;2022-12-07T07:13:36;2.90;99.90
44215;DHT22;29884;47.450;19.124;2022-12-07T07:16:03;2.90;99.90
44215;DHT22;29884;47.450;19.124;2022-12-07T07:18:28;2.90;99.90
44215;DHT22;29884;47.450;19.124;2022-12-07T07:20:54;3.00;99.90
44215;DHT22;29884;47.450;19.124;2022-12-07T07:23:21;3.00;99.90
44215;DHT22;29884;47.450;19.124;2022-12-07T07:25:47;3.00;99.90
44215;DHT22;29884;47.450;19.124;2022-12-07T07:28:16;3.00;99.90
44215;DHT22;29884;47.450;19.124;2022-12-07T07:30:42;3.10;99.90
44215;DHT22;29884;47.450;19.124;2022-12-07T07:33:09;3.10;99.90
44215;DHT22;29884;47.450;19.124;2022-12-07T07:35:35;3.10;99.90
44215;DHT22;29884;47.450;19.124;2022-12-07T07:38:01;3.10;99.90
44215;DHT22;29884;47.450;19.124;2022-12-07T07:40:27;3.20;99.90
44215;DHT22;29884;47.450;19.124;2022-12-07T07:42:54;3.20;99.90
44215;DHT22;29884;47.450;19.124;2022-12-07T07:45:21;3.20;99.90
44215;DHT22;29884;47.450;19.124;2022-12-07T07:47:48;3.20;99.90
44215;DHT22;29884;47.450;19.124;2022-12-07T07:50:14;3.30;99.90
44215;DHT22;29884;47.450;19.124;2022-12-07T07:52:40;3.30;99.90
44215;DHT22;29884;47.450;19.124;2022-12-07T07:55:06;3.30;99.90
44215;DHT22;29884;47.450;19.124;2022-12-07T07:57:37;3.30;99.90
44215;DHT22;29884;47.450;19.124;2022-12-07T08:00:05;3.40;99.90
44215;DHT22;29884;47.450;19.124;2022-12-07T08:02:31;3.40;99.90
44215;DHT22;29884;47.450;19.124;2022-12-07T08:04:56;3.40;99.90
44215;DHT22;29884;47.450;19.124;2022-12-07T08:07:22;3.40;99.90
44215;DHT22;29884;47.450;19.124;2022-12-07T08:09:48;3.50;99.90
44215;DHT22;29884;47.450;19.124;2022-12-07T08:12:13;3.50;99.90
44215;DHT22;29884;47.450;19.124;2022-12-07T08:14:39;3.50;99.90
44215;DHT22;29884;47.450;19.124;2022-12-07T08:17:05;3.50;99.90
44215;DHT22;29884;47.450;19.124;2022-12-07T08:19:31;3.60;99.90
44215;DHT22;29884;47.450;19.124;2022-12-07T08:21:56;3.60;99.90
44215;DHT22;29884;47.450;19.124;2022-12-07T08:24:23;3.60;99.90
44215;DHT22;29884;47.450;19.124;2022-12-07T08:26:48;3.60;99.90
44215;DHT22;29884;47.450;19.124;2022-12-07T08:29:15;3.70;99.90
44215;DHT22;29884;47.450;19.124;2022-12-07T08:31:41;3.70;99.90
44215;DHT22;29884;47.450;19.124;2022-12-07T08:34:10;3.90;99.90
44215;DHT22;29884;47.450;19.124;2022-12-07T08:36:39;3.90;99.90
44215;DHT22;29884;47.450;19.124;2022-12-07T08:39:07;4.00;99.90
44215;DHT22;29884;47.450;19.124;2022-12-07T08:41:33;4.00;99.90
44215;DHT22;29884;47.450;19.124;2022-12-07T08:43:59;4.10;99.90
44215;DHT22;29884;47.450;19.124;2022-12-07T08:46:34;4.10;99.90
44215;DHT22;29884;47.450;19.124;2022-12-07T08:49:18;4.10;99.90
44215;DHT22;29884;47.450;19.124;2022-12-07T08:51:45;4.20;99.90
44215;DHT22;29884;47.450;19.124;2022-12-07T08:54:14;4.30;99.90
44215;DHT22;29884;47.450;19.124;2022-12-07T08:56:41;4.30;99.90
44215;DHT22;29884;47.450;19.124;2022-12-07T08:59:07;4.30;99.90
44215;DHT22;29884;47.450;19.124;2022-12-07T09:01:34;4.50;99.90
44215;DHT22;29884;47.450;19.124;2022-12-07T09:03:59;4.50;99.90
44215;DHT22;29884;47.450;19.124;2022-12-07T09:06:25;4.50;99.90
44215;DHT22;29884;47.450;19.124;2022-12-07T09:08:55;4.60;99.90
44215;DHT22;29884;47.450;19.124;2022-12-07T09:11:22;4.70;99.90
44215;DHT22;29884;47.450;19.124;2022-12-07T09:13:48;4.70;99.90
44215;DHT22;29884;47.450;19.124;2022-12-07T09:16:13;4.70;99.90
44215;DHT22;29884;47.450;19.124;2022-12-07T09:18:39;4.90;99.90
44215;DHT22;29884;47.450;19.124;2022-12-07T09:21:05;4.90;99.90
44215;DHT22;29884;47.450;19.124;2022-12-07T09:23:31;4.90;99.90
44215;DHT22;29884;47.450;19.124;2022-12-07T09:26:01;5.00;99.90
44215;DHT22;29884;47.450;19.124;2022-12-07T09:28:26;5.00;99.90
44215;DHT22;29884;47.450;19.124;2022-12-07T09:30:52;5.00;99.90
44215;DHT22;29884;47.450;19.124;2022-12-07T09:33:18;5.00;99.90
44215;DHT22;29884;47.450;19.124;2022-12-07T09:35:47;5.20;99.90
44215;DHT22;29884;47.450;19.124;2022-12-07T09:38:14;5.20;99.90
44215;DHT22;29884;47.450;19.124;2022-12-07T09:40:40;5.20;99.90
44215;DHT22;29884;47.450;19.124;2022-12-07T09:43:13;5.20;99.90
44215;DHT22;29884;47.450;19.124;2022-12-07T09:45:40;5.30;99.90
44215;DHT22;29884;47.450;19.124;2022-12-07T09:48:18;5.30;99.90
44215;DHT22;29884;47.450;19.124;2022-12-07T09:50:49;5.40;99.90
44215;DHT22;29884;47.450;19.124;2022-12-07T09:53:23;5.40;99.90
44215;DHT22;29884;47.450;19.124;2022-12-07T09:55:49;5.50;99.90
44215;DHT22;29884;47.450;19.124;2022-12-07T09:58:24;5.50;99.90
44215;DHT22;29884;47.450;19.124;2022-12-07T10:00:55;5.60;99.90
44215;DHT22;29884;47.450;19.124;2022-12-07T10:03:22;5.70;99.90
44215;DHT22;29884;47.450;19.124;2022-12-07T10:05:50;5.70;99.90
44215;DHT22;29884;47.450;19.124;2022-12-07T10:08:16;5.80;99.90
44215;DHT22;29884;47.450;19.124;2022-12-07T10:10:43;5.80;99.90
44215;DHT22;29884;47.450;19.124;2022-12-07T10:13:12;5.90;99.90
44215;DHT22;29884;47.450;19.124;2022-12-07T10:20:48;5.90;99.90
44215;DHT22;29884;47.450;19.124;2022-12-07T10:23:16;5.90;99.90
44215;DHT22;29884;47.450;19.124;2022-12-07T10:25:43;5.90;99.90
44215;DHT22;29884;47.450;19.124;2022-12-07T10:31:15;5.90;99.90
44215;DHT22;29884;47.450;19.124;2022-12-07T10:33:53;6.00;99.90
44215;DHT22;29884;47.450;19.124;2022-12-07T10:36:23;6.00;99.90
44215;DHT22;29884;47.450;19.124;2022-12-07T10:39:14;6.00;99.90
44215;DHT22;29884;47.450;19.124;2022-12-07T10:42:01;6.10;99.90
44215;DHT22;29884;47.450;19.124;2022-12-07T10:44:33;6.20;99.90
44215;DHT22;29884;47.450;19.124;2022-12-07T10:50:14;6.30;99.90
44215;DHT22;29884;47.450;19.124;2022-12-07T11:08:40;6.60;99.90
44215;DHT22;29884;47.450;19.124;2022-12-07T11:37:15;7.10;99.90
44215;DHT22;29884;47.450;19.124;2022-12-07T11:39:52;7.10;99.90
44215;DHT22;29884;47.450;19.124;2022-12-07T11:42:37;7.10;99.90
44215;DHT22;29884;47.450;19.124;2022-12-07T11:48:01;7.20;99.90
44215;DHT22;29884;47.450;19.124;2022-12-07T11:50:38;7.20;99.90
44215;DHT22;29884;47.450;19.124;2022-12-07T12:00:43;7.20;99.90
44215;DHT22;29884;47.450;19.124;2022-12-07T12:03:49;7.30;99.90
44215;DHT22;29884;47.450;19.124;2022-12-07T12:06:15;7.20;99.90
44215;DHT22;29884;47.450;19.124;2022-12-07T12:12:19;7.10;99.90
44215;DHT22;29884;47.450;19.124;2022-12-07T12:14:37;7.10;99.90
44215;DHT22;29884;47.450;19.124;2022-12-07T12:17:18;7.20;99.90
44215;DHT22;29884;47.450;19.124;2022-12-07T12:22:47;7.10;99.90
44215;DHT22;29884;47.450;19.124;2022-12-07T12:25:41;7.30;99.90
44215;DHT22;29884;47.450;19.124;2022-12-07T12:28:29;7.40;99.90
44215;DHT22;29884;47.450;19.124;2022-12-07T12:34:00;7.40;99.90
44215;DHT22;29884;47.450;19.124;2022-12-07T12:36:46;7.30;99.90
44215;DHT22;29884;47.450;19.124;2022-12-07T12:39:15;7.20;99.90
44215;DHT22;29884;47.450;19.124;2022-12-07T12:46:57;7.20;99.90
44215;DHT22;29884;47.450;19.124;2022-12-07T12:51:58;7.10;99.90
44215;DHT22;29884;47.450;19.124;2022-12-07T12:54:32;7.10;99.90
44215;DHT22;29884;47.450;19.124;2022-12-07T12:57:26;7.20;99.90
44215;DHT22;29884;47.450;19.124;2022-12-07T13:02:27;7.20;99.90
44215;DHT22;29884;47.450;19.124;2022-12-07T13:05:00;7.30;99.90
44215;DHT22;29884;47.450;19.124;2022-12-07T13:23:37;7.00;99.90
44215;DHT22;29884;47.450;19.124;2022-12-07T13:34:41;6.90;99.90
44215;DHT22;29884;47.450;19.124;2022-12-07T13:39:47;6.90;99.90
44215;DHT22;29884;47.450;19.124;2022-12-07T13:42:33;6.80;99.90
44215;DHT22;29884;47.450;19.124;2022-12-07T13:45:13;6.70;99.90
44215;DHT22;29884;47.450;19.124;2022-12-07T13:47:48;6.70;99.90
44215;DHT22;29884;47.450;19.124;2022-12-07T13:50:28;6.60;99.90
44215;DHT22;29884;47.450;19.124;2022-12-07T13:52:56;6.60;99.90
44215;DHT22;29884;47.450;19.124;2022-12-07T13:55:22;6.50;99.90
44215;DHT22;29884;47.450;19.124;2022-12-07T13:57:51;6.50;99.90
44215;DHT22;29884;47.450;19.124;2022-12-07T14:00:26;6.50;99.90
44215;DHT22;29884;47.450;19.124;2022-12-07T14:02:56;6.50;99.90
44215;DHT22;29884;47.450;19.124;2022-12-07T14:05:33;6.50;99.90
44215;DHT22;29884;47.450;19.124;2022-12-07T14:08:02;6.50;99.90
44215;DHT22;29884;47.450;19.124;2022-12-07T14:10:29;6.50;99.90
44215;DHT22;29884;47.450;19.124;2022-12-07T14:12:56;6.50;99.90
44215;DHT22;29884;47.450;19.124;2022-12-07T14:15:28;6.50;99.90
44215;DHT22;29884;47.450;19.124;2022-12-07T14:17:56;6.50;99.90
44215;DHT22;29884;47.450;19.124;2022-12-07T14:20:35;6.40;99.90
44215;DHT22;29884;47.450;19.124;2022-12-07T14:23:02;6.40;99.90
44215;DHT22;29884;47.450;19.124;2022-12-07T14:25:45;6.30;99.90
44215;DHT22;29884;47.450;19.124;2022-12-07T14:28:32;6.30;99.90
44215;DHT22;29884;47.450;19.124;2022-12-07T14:30:59;6.20;99.90
44215;DHT22;29884;47.450;19.124;2022-12-07T14:33:25;6.20;99.90
44215;DHT22;29884;47.450;19.124;2022-12-07T14:35:51;6.10;99.90
44215;DHT22;29884;47.450;19.124;2022-12-07T14:38:21;6.00;99.90
44215;DHT22;29884;47.450;19.124;2022-12-07T14:40:47;6.00;99.90
44215;DHT22;29884;47.450;19.124;2022-12-07T14:43:16;6.00;99.90
44215;DHT22;29884;47.450;19.124;2022-12-07T14:45:42;6.00;99.90
44215;DHT22;29884;47.450;19.124;2022-12-07T14:48:11;5.90;99.90
44215;DHT22;29884;47.450;19.124;2022-12-07T14:50:39;5.90;99.90
44215;DHT22;29884;47.450;19.124;2022-12-07T14:53:17;5.80;99.90
44215;DHT22;29884;47.450;19.124;2022-12-07T14:55:44;5.70;99.90
44215;DHT22;29884;47.450;19.124;2022-12-07T14:58:17;5.70;99.90
44215;DHT22;29884;47.450;19.124;2022-12-07T15:00:43;5.60;99.90
44215;DHT22;29884;47.450;19.124;2022-12-07T15:03:09;5.60;99.90
44215;DHT22;29884;47.450;19.124;2022-12-07T15:05:36;5.50;99.90
44215;DHT22;29884;47.450;19.124;2022-12-07T15:08:02;5.50;99.90
44215;DHT22;29884;47.450;19.124;2022-12-07T15:10:30;5.50;99.90
44215;DHT22;29884;47.450;19.124;2022-12-07T15:13:01;5.50;99.90
44215;DHT22;29884;47.450;19.124;2022-12-07T15:15:47;5.40;99.90
44215;DHT22;29884;47.450;19.124;2022-12-07T15:18:13;5.40;99.90
44215;DHT22;29884;47.450;19.124;2022-12-07T15:20:39;5.30;99.90
44215;DHT22;29884;47.450;19.124;2022-12-07T15:23:05;5.30;99.90
44215;DHT22;29884;47.450;19.124;2022-12-07T15:25:31;5.30;99.90
44215;DHT22;29884;47.450;19.124;2022-12-07T15:27:56;5.20;99.90
44215;DHT22;29884;47.450;19.124;2022-12-07T15:30:22;5.20;99.90
44215;DHT22;29884;47.450;19.124;2022-12-07T15:32:51;5.10;99.90
44215;DHT22;29884;47.450;19.124;2022-12-07T15:35:17;5.00;99.90
44215;DHT22;29884;47.450;19.124;2022-12-07T15:37:43;5.00;99.90
44215;DHT22;29884;47.450;19.124;2022-12-07T15:40:09;4.90;99.90
44215;DHT22;29884;47.450;19.124;2022-12-07T15:42:36;4.90;99.90
44215;DHT22;29884;47.450;19.124;2022-12-07T15:45:03;4.90;99.90
44215;DHT22;29884;47.450;19.124;2022-12-07T15:47:34;4.80;99.90
44215;DHT22;29884;47.450;19.124;2022-12-07T15:50:03;4.80;99.90
44215;DHT22;29884;47.450;19.124;2022-12-07T15:52:29;4.70;99.90
44215;DHT22;29884;47.450;19.124;2022-12-07T15:54:55;4.60;99.90
44215;DHT22;29884;47.450;19.124;2022-12-07T15:57:21;4.60;99.90
44215;DHT22;29884;47.450;19.124;2022-12-07T15:59:46;4.60;99.90
44215;DHT22;29884;47.450;19.124;2022-12-07T16:02:12;4.60;99.90
44215;DHT22;29884;47.450;19.124;2022-12-07T16:04:38;4.50;99.90
44215;DHT22;29884;47.450;19.124;2022-12-07T16:07:04;4.50;99.90
44215;DHT22;29884;47.450;19.124;2022-12-07T16:09:29;4.40;99.90
44215;DHT22;29884;47.450;19.124;2022-12-07T16:11:55;4.30;99.90
44215;DHT22;29884;47.450;19.124;2022-12-07T16:14:21;4.30;99.90
44215;DHT22;29884;47.450;19.124;2022-12-07T16:16:47;4.30;99.90
44215;DHT22;29884;47.450;19.124;2022-12-07T16:19:13;4.20;99.90
44215;DHT22;29884;47.450;19.124;2022-12-07T16:21:39;4.10;99.90
44215;DHT22;29884;47.450;19.124;2022-12-07T16:24:05;4.10;99.90
44215;DHT22;29884;47.450;19.124;2022-12-07T16:26:31;4.00;99.90
44215;DHT22;29884;47.450;19.124;2022-12-07T16:28:57;3.90;99.90
44215;DHT22;29884;47.450;19.124;2022-12-07T16:31:25;3.90;99.90
44215;DHT22;29884;47.450;19.124;2022-12-07T16:33:53;3.90;99.90
44215;DHT22;29884;47.450;19.124;2022-12-07T16:36:20;3.90;99.90
44215;DHT22;29884;47.450;19.124;2022-12-07T16:38:48;3.80;99.90
44215;DHT22;29884;47.450;19.124;2022-12-07T16:41:14;3.80;99.90
44215;DHT22;29884;47.450;19.124;2022-12-07T16:43:40;3.70;99.90
44215;DHT22;29884;47.450;19.124;2022-12-07T16:46:06;3.70;99.90
44215;DHT22;29884;47.450;19.124;2022-12-07T16:48:38;3.60;99.90
44215;DHT22;29884;47.450;19.124;2022-12-07T16:51:09;3.50;99.90
44215;DHT22;29884;47.450;19.124;2022-12-07T16:53:36;3.50;99.90
44215;DHT22;29884;47.450;19.124;2022-12-07T16:56:02;3.50;99.90
44215;DHT22;29884;47.450;19.124;2022-12-07T16:58:28;3.40;99.90
44215;DHT22;29884;47.450;19.124;2022-12-07T17:00:54;3.30;99.90
44215;DHT22;29884;47.450;19.124;2022-12-07T17:03:20;3.30;99.90
44215;DHT22;29884;47.450;19.124;2022-12-07T17:05:46;3.10;99.90
44215;DHT22;29884;47.450;19.124;2022-12-07T17:08:14;3.10;99.90
44215;DHT22;29884;47.450;19.124;2022-12-07T17:10:42;3.00;99.90
44215;DHT22;29884;47.450;19.124;2022-12-07T17:13:08;3.10;99.90
44215;DHT22;29884;47.450;19.124;2022-12-07T17:16:01;3.10;99.90
44215;DHT22;29884;47.450;19.124;2022-12-07T17:18:32;3.10;99.90
44215;DHT22;29884;47.450;19.124;2022-12-07T17:21:05;3.20;99.90
44215;DHT22;29884;47.450;19.124;2022-12-07T17:23:31;3.20;99.90
44215;DHT22;29884;47.450;19.124;2022-12-07T17:26:09;3.10;99.90
44215;DHT22;29884;47.450;19.124;2022-12-07T17:28:36;3.10;99.90
44215;DHT22;29884;47.450;19.124;2022-12-07T17:31:05;3.00;99.90
44215;DHT22;29884;47.450;19.124;2022-12-07T17:33:32;3.00;99.90
44215;DHT22;29884;47.450;19.124;2022-12-07T17:35:58;2.90;99.90
44215;DHT22;29884;47.450;19.124;2022-12-07T17:38:24;2.80;99.90
44215;DHT22;29884;47.450;19.124;2022-12-07T17:40:50;2.70;99.90
44215;DHT22;29884;47.450;19.124;2022-12-07T17:43:15;2.70;99.90
44215;DHT22;29884;47.450;19.124;2022-12-07T17:45:41;2.60;99.90
44215;DHT22;29884;47.450;19.124;2022-12-07T17:48:07;2.60;99.90
44215;DHT22;29884;47.450;19.124;2022-12-07T17:50:33;2.60;99.90
44215;DHT22;29884;47.450;19.124;2022-12-07T17:53:17;2.50;99.90
44215;DHT22;29884;47.450;19.124;2022-12-07T17:55:43;2.50;99.90
44215;DHT22;29884;47.450;19.124;2022-12-07T17:58:09;2.50;99.90
44215;DHT22;29884;47.450;19.124;2022-12-07T18:00:35;2.40;99.90
44215;DHT22;29884;47.450;19.124;2022-12-07T18:03:06;2.40;99.90
44215;DHT22;29884;47.450;19.124;2022-12-07T18:05:35;2.40;99.90
44215;DHT22;29884;47.450;19.124;2022-12-07T18:08:01;2.40;99.90
44215;DHT22;29884;47.450;19.124;2022-12-07T18:10:27;2.40;99.90
44215;DHT22;29884;47.450;19.124;2022-12-07T18:12:53;2.30;99.90